Aérodrome :
LOGIN :

S'inscrire | Disclaimer

   EN    FR    IT 

 










Légende :    VFR   VFR Marginal   IFR   IFR Intensif   IFR Très Intensif
Visi : 
Plafond : 
>= 8 km
>= 3000ft
5 à 8 km
1000 à 3000 ft
1500m à 5 km
500 à 1000 ft
800 à 1500m
200 à 500 ft
< 800m
< 200 ft
Symboles :   Orages  Brouillard  Fortes neiges  Fortes précipitations  Vent > 20 kt
SIGMETs :   Divers  Orages  Givrage  Turbulence  Onde Orograph.  Cendres Volcan.







- Altitude de l'aérodrome : 195 ft
- Voir les cartes d'approche


LFMY - Salon de Provence

DERNIER METAR :
  • 150930Z AUTO 30008KT 260V330 CAVOK 09/05 Q1005 NOSIG

METARs EXPIRÉS :
  • 150900Z AUTO 31005KT 280V340 CAVOK 09/06 Q1004 NOSIG
  • 150830Z AUTO VRB02KT CAVOK 09/06 Q1004 NOSIG
  • 150800Z AUTO 00000KT CAVOK 08/06 Q1004 NOSIG
  • 150730Z AUTO 35005KT CAVOK 08/05 Q1004 NOSIG
  • 150700Z AUTO 34004KT 310V010 9999 FEW037 OVC120 08/06 Q1004 NOSIG

TAF TAF LFMY
Valide du 15 à 09h jusqu'au 16 à 09h UTC


150800Z 1509/1609 28008KT 9999 FEW050
BECMG 1603/1606 34015G25KT
Pas de NOTAMs connus pour ce terrain.
1 SIGMET publié pour la FIR Marseille (LFMM) :
 
Turbulence forte
LFMM SIGMET 2 VALID 150700/151000 LFPW
LFMM MARSEILLE FIR/UIR SEV TURB OBS WI N4630 E00700 - N4430 E00700 - N4415 E00415 - N4545 E00415 - N4630 E00700 FL180/390 MOV SE 25KT NC=



MET'MAP, la Météo Aéronautique d'un coup d'oeil ! - Copyright ORBIFLY Décembre 2007 - Disclaimer

ORBIFLY MET'MAP TEAM :

Programmation & Développement : Alexandra Zaïnal
Conception & Développement : Baudouin d'Aumeries
Co-Programmation & Développement : Marc-Olivier Méhu
Soutien technique & logistique : Manuel Goepfert

Contact : metmap@orbifly.com




SOURCES & CREDITS :

   NOAA